createdAt,value
2019-05-12T00:00:39.179Z,10
2019-05-12T00:05:40.514Z,9
2019-05-12T00:10:42.990Z,9
2019-05-12T00:15:47.534Z,8
2019-05-12T00:20:47.964Z,7
2019-05-12T00:25:50.099Z,7
2019-05-12T00:30:52.658Z,6
2019-05-12T00:35:55.011Z,6
2019-05-12T00:40:58.283Z,6
2019-05-12T00:45:59.912Z,7
2019-05-12T00:51:02.634Z,6
2019-05-12T00:56:04.826Z,6
2019-05-12T01:01:08.108Z,6
2019-05-12T01:06:09.829Z,5
2019-05-12T01:11:12.266Z,5
2019-05-12T01:16:14.641Z,4
2019-05-12T01:21:18.421Z,4
2019-05-12T01:26:19.636Z,3
2019-05-12T01:31:22.132Z,4
2019-05-12T01:36:24.535Z,5
2019-05-12T01:41:28.615Z,5
2019-05-12T01:46:29.433Z,5
2019-05-12T01:51:31.872Z,4
2019-05-12T01:56:34.398Z,4
2019-05-12T02:01:38.809Z,4
2019-05-12T02:06:39.259Z,4
2019-05-12T02:11:41.753Z,4
2019-05-12T02:16:44.160Z,4
2019-05-12T02:21:48.620Z,3
2019-05-12T02:26:49.116Z,3
2019-05-12T02:31:51.850Z,4
2019-05-12T02:36:55.447Z,4
2019-05-12T02:41:56.455Z,4
2019-05-12T02:46:58.883Z,4
2019-05-12T02:52:01.355Z,4
2019-05-12T02:57:04.379Z,5
2019-05-12T03:02:06.354Z,5
2019-05-12T03:07:08.858Z,5
2019-05-12T03:12:14.106Z,6
2019-05-12T03:17:15.308Z,6
2019-05-12T03:22:16.138Z,6
2019-05-12T03:27:18.560Z,6
2019-05-12T03:32:26.506Z,5
2019-05-12T03:37:30.421Z,5
2019-05-12T03:42:25.972Z,5
2019-05-12T03:47:28.423Z,5
2019-05-12T03:52:30.856Z,4
2019-05-12T03:57:34.468Z,5
2019-05-12T04:02:35.779Z,5
2019-05-12T04:07:38.292Z,4
2019-05-12T04:12:40.712Z,4
2019-05-12T04:17:45.122Z,4
2019-05-12T04:22:45.687Z,4
2019-05-12T04:27:48.043Z,4
2019-05-12T04:37:55.272Z,4
2019-05-12T04:42:55.543Z,5
2019-05-12T04:47:57.955Z,4
2019-05-12T04:53:00.339Z,4
2019-05-12T04:58:04.365Z,3
2019-05-12T05:03:05.905Z,5
2019-05-12T05:08:07.817Z,4
2019-05-12T05:13:10.265Z,4
2019-05-12T05:18:13.322Z,5
2019-05-12T05:23:15.139Z,4
2019-05-12T05:28:17.531Z,5
2019-05-12T05:33:20.134Z,5
2019-05-12T05:38:23.668Z,5
2019-05-12T05:43:24.949Z,4
2019-05-12T05:48:27.369Z,4
2019-05-12T05:53:29.837Z,5
2019-05-12T05:58:33.890Z,5
2019-05-12T06:03:34.739Z,5
2019-05-12T06:08:37.199Z,5
2019-05-12T06:13:40.186Z,6
2019-05-12T06:18:43.896Z,7
2019-05-12T06:23:44.694Z,7
2019-05-12T06:28:47.030Z,6
2019-05-12T06:33:49.513Z,7
2019-05-12T06:43:54.503Z,7
2019-05-12T06:49:00.298Z,6
2019-05-12T06:54:00.804Z,6
2019-05-12T06:59:09.323Z,7
2019-05-12T07:04:06.339Z,8
2019-05-12T07:09:09.696Z,8
2019-05-12T07:19:17.029Z,6
2019-05-12T07:24:14.293Z,7
2019-05-12T07:29:16.538Z,7
2019-05-12T07:34:19.034Z,7
2019-05-12T07:39:24.017Z,6
2019-05-12T07:44:25.193Z,7
2019-05-12T07:49:33.931Z,7
2019-05-12T07:54:29.278Z,7
2019-05-12T07:59:35.489Z,6
2019-05-12T08:04:39.538Z,7
2019-05-12T08:09:36.745Z,9
2019-05-12T08:14:38.666Z,7
2019-05-12T08:19:41.110Z,7
2019-05-12T08:24:47.950Z,8
2019-05-12T08:29:46.028Z,7
2019-05-12T08:34:48.503Z,8
2019-05-12T08:39:53.101Z,7
2019-05-12T08:44:54.211Z,8
2019-05-12T08:49:58.554Z,7
2019-05-12T08:54:58.307Z,7
2019-05-12T09:00:03.120Z,7
2019-05-12T09:05:04.597Z,7
2019-05-12T09:10:06.215Z,6
2019-05-12T09:15:08.530Z,6
2019-05-12T09:20:10.655Z,6
2019-05-12T09:25:14.278Z,6
2019-05-12T09:30:15.563Z,5
2019-05-12T09:35:18.029Z,5
2019-05-12T09:40:22.065Z,5
2019-05-12T09:45:24.207Z,5
2019-05-12T09:50:25.353Z,4
2019-05-12T09:55:27.793Z,4
2019-05-12T10:00:35.644Z,4
2019-05-12T10:05:37.371Z,3
2019-05-12T10:10:39.977Z,4
2019-05-12T10:15:37.643Z,4
2019-05-12T10:20:40.168Z,3
2019-05-12T10:25:44.531Z,3
2019-05-12T10:30:47.038Z,4
2019-05-12T10:35:47.572Z,3
2019-05-12T10:40:50.218Z,3
2019-05-12T10:45:53.741Z,3
2019-05-12T10:50:54.966Z,3
2019-05-12T10:55:57.367Z,3
2019-05-12T11:01:04.967Z,2
2019-05-12T11:06:06.722Z,2
2019-05-12T11:11:04.694Z,2
2019-05-12T11:16:07.603Z,3
2019-05-12T11:21:09.681Z,2
2019-05-12T11:26:14.046Z,2
2019-05-12T11:31:14.512Z,3
2019-05-12T11:36:16.981Z,3
2019-05-12T11:41:20.318Z,2
2019-05-12T11:46:23.761Z,3
2019-05-12T11:51:26.864Z,2
2019-05-12T11:56:26.835Z,2
2019-05-12T12:01:29.284Z,2
2019-05-12T12:06:33.121Z,2
2019-05-12T12:11:34.330Z,1
2019-05-12T12:16:41.789Z,2
2019-05-12T12:21:40.268Z,2
2019-05-12T12:26:44.215Z,2
2019-05-12T12:31:44.040Z,2
2019-05-12T12:36:46.652Z,2
2019-05-12T12:41:55.984Z,2
2019-05-12T12:46:59.724Z,2
2019-05-12T12:51:53.840Z,1
2019-05-12T12:57:00.004Z,1
2019-05-12T13:02:04.087Z,1
2019-05-12T13:07:01.234Z,1
2019-05-12T13:12:05.818Z,1
2019-05-12T13:17:06.210Z,1
2019-05-12T13:22:08.836Z,1
2019-05-12T13:27:11.092Z,1
2019-05-12T13:32:13.822Z,1
2019-05-12T13:37:19.374Z,1
2019-05-12T13:42:18.437Z,1
2019-05-12T13:47:21.012Z,1
2019-05-12T13:52:26.123Z,1
2019-05-12T13:57:25.860Z,1
2019-05-12T14:02:28.279Z,2
2019-05-12T14:07:30.729Z,1
2019-05-12T14:12:33.182Z,2
2019-05-12T14:17:40.060Z,1
2019-05-12T14:22:38.200Z,1
2019-05-12T14:27:40.682Z,1
2019-05-12T14:32:43.937Z,1
2019-05-12T14:37:47.423Z,1
2019-05-12T14:42:47.947Z,1
2019-05-12T14:47:50.380Z,1
2019-05-12T14:52:55.784Z,1
2019-05-12T14:57:55.351Z,1
2019-05-12T15:02:59.043Z,1
2019-05-12T15:08:00.496Z,1
2019-05-12T15:13:03.541Z,1
2019-05-12T15:18:09.326Z,1
2019-05-12T15:23:07.667Z,1
2019-05-12T15:28:10.153Z,1
2019-05-12T15:33:13.844Z,1
2019-05-12T15:38:16.784Z,1
2019-05-12T15:43:17.465Z,1
2019-05-12T15:48:19.903Z,2
2019-05-12T15:53:26.633Z,1
2019-05-12T15:58:24.912Z,2
2019-05-12T16:03:27.261Z,1
2019-05-12T16:08:29.807Z,1
2019-05-12T16:13:33.765Z,1
2019-05-12T16:18:34.628Z,1
2019-05-12T16:23:37.263Z,1
2019-05-12T16:28:39.599Z,1
2019-05-12T16:33:43.605Z,1
2019-05-12T16:38:44.670Z,1
2019-05-12T16:43:46.927Z,1
2019-05-12T16:48:54.335Z,1
2019-05-12T16:53:53.865Z,1
2019-05-12T16:58:54.331Z,1
2019-05-12T17:03:56.780Z,1
2019-05-12T17:08:59.210Z,1
2019-05-12T17:14:04.824Z,1
2019-05-12T17:19:05.890Z,1
2019-05-12T17:24:06.685Z,1
2019-05-12T17:29:09.084Z,1
2019-05-12T17:34:11.522Z,1
2019-05-12T17:39:14.135Z,1
2019-05-12T17:44:16.726Z,1
2019-05-12T17:49:25.087Z,1
2019-05-12T17:54:23.314Z,1
2019-05-12T17:59:28.938Z,1
2019-05-12T18:04:30.351Z,1
2019-05-12T18:09:30.600Z,1
2019-05-12T18:14:31.180Z,1
2019-05-12T18:19:34.008Z,1
2019-05-12T18:24:36.192Z,1
2019-05-12T18:29:38.541Z,1
2019-05-12T18:34:41.077Z,1
2019-05-12T18:39:43.867Z,1
2019-05-12T18:44:45.940Z,1
2019-05-12T18:49:50.122Z,1
2019-05-12T18:54:52.408Z,2
2019-05-12T18:59:54.945Z,1
2019-05-12T19:04:55.819Z,1
2019-05-12T19:09:59.265Z,2
2019-05-12T19:15:00.740Z,1
2019-05-12T19:20:05.210Z,1
2019-05-12T19:25:05.652Z,1
2019-05-12T19:30:08.027Z,1
2019-05-12T19:35:15.699Z,1
2019-05-12T19:40:14.773Z,1
2019-05-12T19:45:21.242Z,1
2019-05-12T19:50:18.684Z,2
2019-05-12T19:55:20.412Z,1
2019-05-12T20:00:22.843Z,1
2019-05-12T20:05:25.248Z,1
2019-05-12T20:10:27.786Z,1
2019-05-12T20:15:35.502Z,1
2019-05-12T20:20:35.884Z,1
2019-05-12T20:25:35.067Z,1
2019-05-12T20:30:37.544Z,1
2019-05-12T20:35:44.975Z,1
2019-05-12T20:40:45.066Z,1
2019-05-12T20:45:45.687Z,1
2019-05-12T20:50:47.376Z,1
2019-05-12T20:55:49.887Z,1
2019-05-12T21:00:53.778Z,2
2019-05-12T21:05:57.710Z,1
2019-05-12T21:10:57.279Z,1
2019-05-12T21:15:59.638Z,1
2019-05-12T21:21:03.499Z,1
2019-05-12T21:26:04.645Z,1
2019-05-12T21:31:08.571Z,1
2019-05-12T21:36:14.425Z,1
2019-05-12T21:41:13.306Z,1
2019-05-12T21:46:15.474Z,1
2019-05-12T21:51:19.872Z,1
2019-05-12T21:56:19.276Z,1
2019-05-12T22:01:23.865Z,1
2019-05-12T22:06:24.884Z,1
2019-05-12T22:11:26.691Z,2
2019-05-12T22:16:35.135Z,1
2019-05-12T22:21:35.639Z,1
2019-05-12T22:26:39.519Z,1
2019-05-12T22:31:38.453Z,1
2019-05-12T22:36:45.154Z,1
2019-05-12T22:41:41.725Z,1
2019-05-12T22:46:43.886Z,1
2019-05-12T22:51:46.522Z,1
2019-05-12T22:56:49.442Z,1
2019-05-12T23:01:53.962Z,1
2019-05-12T23:06:53.982Z,1
2019-05-12T23:11:56.168Z,1
2019-05-12T23:16:59.925Z,1
2019-05-12T23:22:03.341Z,1
2019-05-12T23:27:04.801Z,1
2019-05-12T23:32:09.954Z,1
2019-05-12T23:37:08.427Z,1
2019-05-12T23:42:10.917Z,1
2019-05-12T23:47:13.353Z,1
2019-05-12T23:52:15.940Z,1
2019-05-12T23:57:18.269Z,1
